createdAt,value
2023-04-17T00:01:50.171Z,75.87
2023-04-17T00:04:22.529Z,75.78
2023-04-17T00:06:54.938Z,76.14
2023-04-17T00:09:27.170Z,75.92
2023-04-17T00:11:59.536Z,75.62
2023-04-17T00:14:31.705Z,75.95
2023-04-17T00:17:03.932Z,76.03
2023-04-17T00:19:36.145Z,76.87
2023-04-17T00:22:08.314Z,77.61
2023-04-17T00:24:40.581Z,77.56
2023-04-17T00:27:12.805Z,77.51
2023-04-17T00:29:45.237Z,77.72
2023-04-17T00:32:17.447Z,77.97
2023-04-17T00:34:50.540Z,77.77
2023-04-17T00:37:22.700Z,77.63
2023-04-17T00:39:54.869Z,77.38
2023-04-17T00:42:27.330Z,77.67
2023-04-17T00:45:00.438Z,77.28
2023-04-17T00:47:33.268Z,77.24
2023-04-17T00:50:06.475Z,77.45
2023-04-17T00:52:38.783Z,77.60
2023-04-17T00:55:12.120Z,77.65
2023-04-17T00:57:44.982Z,77.48
2023-04-17T01:00:18.736Z,77.38
2023-04-17T01:02:51.014Z,77.85
2023-04-17T01:05:23.268Z,77.67
2023-04-17T01:07:56.088Z,77.88
2023-04-17T01:10:28.330Z,77.55
2023-04-17T01:13:07.834Z,77.36
2023-04-17T01:15:40.172Z,78.23
2023-04-17T01:18:12.416Z,77.85
2023-04-17T01:20:45.132Z,77.65
2023-04-17T01:23:17.549Z,77.36
2023-04-17T01:25:51.413Z,77.90
2023-04-17T01:28:23.722Z,77.76
2023-04-17T01:30:55.838Z,77.69
2023-04-17T01:33:28.229Z,78.13
2023-04-17T01:36:00.304Z,77.61
2023-04-17T01:38:32.479Z,77.95
2023-04-17T01:41:09.953Z,78.35
2023-04-17T01:43:44.254Z,78.38
2023-04-17T01:46:16.478Z,77.89
2023-04-17T01:48:48.582Z,77.81
2023-04-17T01:51:20.761Z,78.38
2023-04-17T01:53:52.854Z,78.58
2023-04-17T01:56:25.028Z,78.16
2023-04-17T01:58:57.347Z,78.42
2023-04-17T02:01:30.312Z,78.15
2023-04-17T02:04:02.604Z,78.24
2023-04-17T02:06:35.074Z,78.26
2023-04-17T02:09:07.388Z,77.98
2023-04-17T02:11:42.589Z,78.13
2023-04-17T02:14:14.657Z,78.50
2023-04-17T02:16:46.772Z,78.34
2023-04-17T02:19:18.863Z,78.46
2023-04-17T02:21:50.962Z,78.66
2023-04-17T02:24:23.100Z,79.05
2023-04-17T02:26:55.342Z,79.28
2023-04-17T02:29:27.815Z,79.24
2023-04-17T02:32:00.182Z,79.14
2023-04-17T02:34:32.517Z,79.03
2023-04-17T02:37:04.789Z,80.38
2023-04-17T02:39:37.366Z,79.31
2023-04-17T02:42:10.364Z,79.02
2023-04-17T02:44:42.832Z,79.05
2023-04-17T02:47:15.447Z,78.75
2023-04-17T02:49:47.528Z,78.68
2023-04-17T02:52:19.998Z,78.67
2023-04-17T02:54:52.219Z,78.39
2023-04-17T02:57:24.435Z,78.47
2023-04-17T02:59:56.608Z,78.95
2023-04-17T03:02:30.986Z,78.56
2023-04-17T03:05:04.423Z,78.91
2023-04-17T03:07:36.545Z,78.75
2023-04-17T03:10:10.620Z,79.32
2023-04-17T03:12:42.833Z,78.86
2023-04-17T03:15:15.322Z,78.73
2023-04-17T03:17:48.469Z,78.59
2023-04-17T03:20:21.287Z,78.45
2023-04-17T03:22:53.429Z,79.49
2023-04-17T03:25:26.199Z,79.29
2023-04-17T03:27:58.400Z,80.82
2023-04-17T03:30:35.454Z,80.29
2023-04-17T03:33:10.589Z,79.42
2023-04-17T03:35:45.488Z,79.36
2023-04-17T03:38:17.804Z,79.37
2023-04-17T03:40:50.180Z,79.23
2023-04-17T03:43:22.329Z,79.27
2023-04-17T03:45:54.571Z,79.66
2023-04-17T03:48:26.992Z,79.40
2023-04-17T03:50:59.367Z,79.30
2023-04-17T03:53:33.091Z,79.75
2023-04-17T03:56:07.511Z,80.00
2023-04-17T03:58:42.420Z,79.65
2023-04-17T04:01:15.987Z,79.94
2023-04-17T04:04:03.890Z,80.03
2023-04-17T04:06:37.892Z,78.91
2023-04-17T04:09:10.681Z,78.58
2023-04-17T04:11:43.151Z,78.62
2023-04-17T04:14:16.798Z,78.21
2023-04-17T04:16:49.807Z,78.76
2023-04-17T04:19:22.216Z,79.01
2023-04-17T04:21:54.802Z,79.00
2023-04-17T04:24:28.869Z,78.91
2023-04-17T04:27:05.649Z,79.08
2023-04-17T04:29:39.655Z,79.75
2023-04-17T04:32:16.020Z,79.95
2023-04-17T04:34:51.897Z,79.67
2023-04-17T04:37:30.325Z,79.74
2023-04-17T04:40:11.023Z,79.50
2023-04-17T04:42:50.102Z,79.89
2023-04-17T04:45:34.049Z,79.90
2023-04-17T04:48:06.578Z,79.59
2023-04-17T04:50:38.929Z,79.76
2023-04-17T04:53:11.381Z,79.72
2023-04-17T04:55:55.420Z,79.99
2023-04-17T04:58:30.007Z,80.00
2023-04-17T05:01:05.186Z,79.75
2023-04-17T05:03:44.928Z,79.89
2023-04-17T05:06:19.883Z,80.00
2023-04-17T05:08:54.783Z,80.24
2023-04-17T05:11:27.018Z,79.73
2023-04-17T05:13:59.253Z,79.60
2023-04-17T05:16:34.492Z,79.73
2023-04-17T05:19:06.754Z,79.79
2023-04-17T05:21:59.190Z,79.72
2023-04-17T05:24:31.692Z,79.93
2023-04-17T05:27:04.306Z,80.47
2023-04-17T05:29:37.869Z,80.19
2023-04-17T05:32:11.217Z,80.27
2023-04-17T05:35:04.091Z,79.79
2023-04-17T05:37:37.226Z,79.39
2023-04-17T05:40:12.114Z,79.14
2023-04-17T05:42:44.739Z,78.89
2023-04-17T05:45:18.286Z,79.30
2023-04-17T05:47:50.538Z,79.33
2023-04-17T05:50:22.890Z,79.56
2023-04-17T05:52:57.222Z,79.37
2023-04-17T05:55:31.099Z,79.26
2023-04-17T05:58:20.429Z,79.60
2023-04-17T06:00:55.824Z,79.13
2023-04-17T06:03:28.789Z,79.30
2023-04-17T06:06:07.064Z,78.96
2023-04-17T06:08:39.098Z,78.92
2023-04-17T06:11:11.553Z,78.82
2023-04-17T06:13:44.244Z,79.03
2023-04-17T06:16:16.757Z,79.18
2023-04-17T06:18:52.021Z,79.26
2023-04-17T06:21:24.361Z,79.25
2023-04-17T06:23:57.616Z,79.02
2023-04-17T06:26:29.848Z,78.85
2023-04-17T06:29:02.601Z,78.46
2023-04-17T06:31:36.101Z,78.24
2023-04-17T06:34:09.384Z,78.11
2023-04-17T06:36:45.424Z,78.12
2023-04-17T06:39:22.206Z,78.16
2023-04-17T06:41:56.320Z,78.24
2023-04-17T06:44:33.012Z,78.51
2023-04-17T06:47:08.968Z,78.96
2023-04-17T06:49:43.876Z,79.36
2023-04-17T06:52:20.430Z,79.62
2023-04-17T06:54:57.234Z,79.35
2023-04-17T06:57:29.882Z,79.22
2023-04-17T07:00:02.665Z,79.30
2023-04-17T07:02:35.025Z,78.83
2023-04-17T07:05:10.810Z,79.02
2023-04-17T07:07:43.013Z,79.57
2023-04-17T07:10:16.202Z,79.43
2023-04-17T07:12:48.448Z,79.37
2023-04-17T07:15:20.903Z,79.26
2023-04-17T07:17:53.696Z,79.37
2023-04-17T07:20:26.491Z,79.35
2023-04-17T07:22:58.936Z,79.06
2023-04-17T07:25:31.157Z,79.20
2023-04-17T07:28:04.597Z,79.11
2023-04-17T07:30:37.578Z,78.99
2023-04-17T07:33:10.130Z,78.94
2023-04-17T07:35:44.686Z,78.76
2023-04-17T07:38:17.165Z,78.57
2023-04-17T07:40:50.185Z,78.46
2023-04-17T07:43:22.691Z,77.99
2023-04-17T07:45:55.506Z,78.08
2023-04-17T07:48:28.608Z,77.57
2023-04-17T07:51:02.350Z,77.74
2023-04-17T07:53:36.166Z,77.41
2023-04-17T07:56:08.633Z,77.79
2023-04-17T07:58:45.232Z,77.63
2023-04-17T08:01:18.111Z,77.46
2023-04-17T08:03:51.916Z,76.99
2023-04-17T08:06:24.456Z,76.74
2023-04-17T08:08:57.052Z,76.79
2023-04-17T08:11:29.380Z,76.50
2023-04-17T08:14:01.641Z,76.31
2023-04-17T08:16:34.369Z,76.58
2023-04-17T08:19:06.739Z,76.65
2023-04-17T08:21:38.846Z,76.60
2023-04-17T08:24:11.381Z,76.18
2023-04-17T08:26:43.596Z,76.16
2023-04-17T08:29:16.066Z,75.53
2023-04-17T08:31:48.516Z,75.52
2023-04-17T08:34:21.817Z,75.47
2023-04-17T08:36:54.021Z,75.25
2023-04-17T08:39:27.489Z,75.31
2023-04-17T08:42:03.193Z,75.50
2023-04-17T08:44:35.745Z,75.43
2023-04-17T08:47:11.342Z,75.32
2023-04-17T08:49:44.060Z,75.27
2023-04-17T08:52:16.873Z,75.29
2023-04-17T08:54:51.286Z,75.33
2023-04-17T08:57:23.747Z,75.27
2023-04-17T08:59:56.028Z,74.98
2023-04-17T09:02:28.555Z,74.58
2023-04-17T09:05:02.121Z,74.53
2023-04-17T09:07:34.506Z,74.87
2023-04-17T09:10:07.938Z,74.78
2023-04-17T09:12:42.265Z,74.84
2023-04-17T09:15:20.078Z,74.63
2023-04-17T09:17:52.151Z,74.59
2023-04-17T09:20:24.598Z,74.40
2023-04-17T09:23:04.346Z,74.17
2023-04-17T09:25:36.610Z,74.06
2023-04-17T09:28:16.177Z,73.61
2023-04-17T09:30:48.445Z,73.85
2023-04-17T09:33:20.535Z,73.91
2023-04-17T09:35:52.822Z,74.15
2023-04-17T09:38:40.210Z,74.19
2023-04-17T09:41:25.799Z,74.03
2023-04-17T09:44:02.035Z,73.90
2023-04-17T09:46:40.721Z,73.67
2023-04-17T09:49:19.032Z,73.53
2023-04-17T09:51:51.552Z,73.60
2023-04-17T09:54:24.797Z,73.18
2023-04-17T09:56:57.872Z,73.32
2023-04-17T09:59:32.407Z,73.15
2023-04-17T10:02:21.674Z,73.52
2023-04-17T10:04:55.572Z,73.10
2023-04-17T10:07:28.068Z,73.21
2023-04-17T10:10:05.011Z,73.12
2023-04-17T10:12:37.866Z,71.79
2023-04-17T10:15:14.881Z,72.21
2023-04-17T10:17:50.034Z,71.60
2023-04-17T10:20:44.939Z,71.75
2023-04-17T10:23:34.909Z,71.41
2023-04-17T10:26:37.998Z,71.57
2023-04-17T10:29:10.552Z,71.55
2023-04-17T10:32:26.337Z,71.62
2023-04-17T10:35:00.255Z,71.50
2023-04-17T10:38:05.058Z,71.16
2023-04-17T10:40:37.706Z,71.80
2023-04-17T10:43:15.049Z,71.52
2023-04-17T10:46:05.242Z,71.10
2023-04-17T10:48:41.141Z,70.60
2023-04-17T10:51:49.867Z,70.21
2023-04-17T10:54:22.297Z,69.47
2023-04-17T10:56:58.149Z,69.79
2023-04-17T10:59:31.146Z,69.70
2023-04-17T11:02:05.084Z,69.48
2023-04-17T11:04:37.773Z,69.37
2023-04-17T11:07:10.074Z,69.29
2023-04-17T11:09:42.969Z,69.37
2023-04-17T11:12:15.592Z,69.27
2023-04-17T11:14:47.881Z,68.92
2023-04-17T11:17:22.626Z,68.31
2023-04-17T11:19:55.011Z,68.05
2023-04-17T11:22:28.557Z,67.07
2023-04-17T11:25:00.797Z,66.74
2023-04-17T11:27:33.700Z,65.90
2023-04-17T11:30:06.893Z,65.61
2023-04-17T11:32:40.386Z,65.45
2023-04-17T11:35:13.588Z,64.03
2023-04-17T11:38:11.529Z,62.86
2023-04-17T11:40:48.967Z,61.61
2023-04-17T11:43:22.675Z,61.87
2023-04-17T11:45:57.371Z,61.76
2023-04-17T11:48:32.498Z,61.04
2023-04-17T11:51:08.118Z,60.22
2023-04-17T11:53:49.206Z,60.34
2023-04-17T11:56:27.671Z,60.82
2023-04-17T11:59:02.195Z,60.96
2023-04-17T12:01:34.573Z,60.60
2023-04-17T12:04:22.513Z,61.29
2023-04-17T12:06:55.099Z,61.37
2023-04-17T12:09:32.069Z,61.50
2023-04-17T12:12:07.985Z,61.91
2023-04-17T12:14:38.795Z,62.01
2023-04-17T12:17:11.294Z,62.38
2023-04-17T12:19:45.170Z,62.97
2023-04-17T12:22:17.728Z,63.23
2023-04-17T12:24:50.142Z,63.78
2023-04-17T12:27:22.383Z,64.03
2023-04-17T12:29:54.810Z,64.59
2023-04-17T12:32:27.110Z,64.94
2023-04-17T12:34:59.395Z,65.48
2023-04-17T12:37:31.668Z,65.75
2023-04-17T12:40:04.455Z,65.95
2023-04-17T12:42:46.533Z,66.34
2023-04-17T12:45:21.811Z,66.84
2023-04-17T12:47:54.083Z,66.84
2023-04-17T12:50:26.572Z,66.84
2023-04-17T12:52:58.865Z,67.02
2023-04-17T12:55:33.734Z,67.04
2023-04-17T12:58:07.134Z,66.99
2023-04-17T13:00:41.195Z,67.24
2023-04-17T13:03:13.850Z,67.32
2023-04-17T13:05:46.626Z,67.38
2023-04-17T13:08:18.884Z,67.52
2023-04-17T13:10:51.365Z,67.63
2023-04-17T13:13:24.672Z,67.50
2023-04-17T13:15:57.147Z,67.71
2023-04-17T13:18:29.641Z,67.55
2023-04-17T13:21:02.178Z,67.11
2023-04-17T13:23:35.010Z,66.85
2023-04-17T13:26:08.272Z,66.15
2023-04-17T13:28:41.268Z,65.42
2023-04-17T13:31:14.440Z,65.86
2023-04-17T13:33:46.537Z,65.87
2023-04-17T13:36:18.776Z,65.62
2023-04-17T13:38:57.307Z,66.04
2023-04-17T13:41:30.378Z,65.90
2023-04-17T13:44:02.559Z,66.20
2023-04-17T13:46:36.435Z,66.13
2023-04-17T13:49:08.537Z,66.05
2023-04-17T13:51:40.719Z,65.58
2023-04-17T13:54:13.148Z,65.80
2023-04-17T13:56:45.997Z,65.82
2023-04-17T13:59:18.638Z,65.23
2023-04-17T14:01:51.564Z,65.47
2023-04-17T14:04:24.266Z,65.69
2023-04-17T14:06:59.912Z,65.40
2023-04-17T14:09:32.224Z,65.47
2023-04-17T14:12:04.980Z,65.38
2023-04-17T14:14:37.527Z,65.40
2023-04-17T14:17:10.246Z,65.35
2023-04-17T14:19:42.442Z,65.24
2023-04-17T14:22:14.707Z,65.05
2023-04-17T14:24:47.158Z,64.77
2023-04-17T14:27:19.461Z,64.48
2023-04-17T14:29:51.791Z,64.56
2023-04-17T14:32:24.329Z,64.57
2023-04-17T14:34:57.038Z,64.54
2023-04-17T14:37:29.608Z,64.57
2023-04-17T14:40:02.071Z,64.41
2023-04-17T14:42:43.744Z,64.63
2023-04-17T14:45:23.611Z,64.71
2023-04-17T14:47:57.239Z,64.60
2023-04-17T14:50:34.516Z,64.49
2023-04-17T14:53:07.221Z,64.63
2023-04-17T14:55:39.657Z,65.03
2023-04-17T14:58:12.309Z,65.07
2023-04-17T15:00:44.453Z,65.35
2023-04-17T15:03:16.796Z,65.56
2023-04-17T15:05:49.206Z,65.63
2023-04-17T15:08:22.362Z,65.34
2023-04-17T15:10:54.510Z,65.04
2023-04-17T15:13:26.661Z,64.83
2023-04-17T15:15:58.851Z,64.59
2023-04-17T15:18:31.259Z,63.55
2023-04-17T15:21:03.861Z,62.89
2023-04-17T15:23:36.229Z,62.57
2023-04-17T15:26:09.325Z,62.52
2023-04-17T15:28:42.501Z,62.41
2023-04-17T15:31:15.030Z,62.40
2023-04-17T15:33:47.730Z,62.23
2023-04-17T15:36:20.985Z,62.50
2023-04-17T15:38:53.331Z,63.09
2023-04-17T15:41:25.744Z,64.04
2023-04-17T15:43:58.602Z,64.81
2023-04-17T15:46:32.112Z,65.87
2023-04-17T15:49:08.211Z,66.60
2023-04-17T15:51:54.084Z,66.81
2023-04-17T15:54:26.299Z,67.30
2023-04-17T15:56:58.534Z,68.01
2023-04-17T15:59:32.315Z,68.34
2023-04-17T16:02:04.887Z,68.87
2023-04-17T16:04:37.581Z,69.11
2023-04-17T16:07:11.711Z,69.71
2023-04-17T16:09:46.759Z,69.81
2023-04-17T16:12:18.896Z,70.48
2023-04-17T16:14:51.169Z,70.65
2023-04-17T16:17:23.278Z,70.90
2023-04-17T16:19:55.359Z,71.08
2023-04-17T16:22:27.703Z,71.73
2023-04-17T16:24:59.997Z,71.69
2023-04-17T16:27:33.292Z,72.26
2023-04-17T16:30:06.431Z,72.67
2023-04-17T16:32:39.700Z,72.51
2023-04-17T16:35:12.736Z,73.05
2023-04-17T16:37:44.952Z,72.80
2023-04-17T16:40:18.122Z,72.96
2023-04-17T16:42:50.556Z,72.98
2023-04-17T16:45:23.532Z,73.04
2023-04-17T16:47:57.023Z,73.46
2023-04-17T16:50:29.596Z,73.85
2023-04-17T16:53:02.415Z,74.13
2023-04-17T16:55:34.975Z,74.40
2023-04-17T16:58:07.314Z,74.64
2023-04-17T17:00:39.647Z,74.39
2023-04-17T17:05:32.942Z,74.78
2023-04-17T17:08:05.321Z,74.67
2023-04-17T17:10:37.407Z,74.63
2023-04-17T17:13:09.621Z,74.61
2023-04-17T17:15:41.891Z,74.32
2023-04-17T17:18:14.204Z,74.46
2023-04-17T17:20:46.272Z,74.25
2023-04-17T17:23:18.258Z,74.40
2023-04-17T17:25:50.250Z,74.78
2023-04-17T17:28:22.238Z,74.84
2023-04-17T17:31:01.789Z,75.01
2023-04-17T17:33:34.362Z,75.08
2023-04-17T17:36:08.992Z,74.56
2023-04-17T17:38:40.949Z,74.73
2023-04-17T17:41:12.951Z,74.74
2023-04-17T17:43:45.053Z,74.52
2023-04-17T17:46:17.160Z,74.59
2023-04-17T17:48:49.290Z,74.64
2023-04-17T17:51:22.717Z,74.57
2023-04-17T17:53:55.523Z,74.77
2023-04-17T17:56:28.610Z,74.91
2023-04-17T17:59:00.874Z,75.00
2023-04-17T18:01:33.467Z,75.09
2023-04-17T18:04:05.954Z,75.06
2023-04-17T18:06:38.456Z,75.03
2023-04-17T18:09:10.485Z,75.04
2023-04-17T18:11:42.546Z,75.16
2023-04-17T18:14:14.759Z,75.12
2023-04-17T18:16:48.622Z,75.13
2023-04-17T18:19:20.782Z,74.93
2023-04-17T18:21:52.768Z,75.18
2023-04-17T18:24:25.761Z,75.23
2023-04-17T18:26:58.430Z,75.54
2023-04-17T18:29:30.832Z,75.41
2023-04-17T18:32:03.640Z,75.89
2023-04-17T18:34:36.121Z,76.21
2023-04-17T18:37:08.271Z,76.35
2023-04-17T18:39:40.625Z,76.59
2023-04-17T18:42:13.018Z,76.50
2023-04-17T18:44:45.051Z,76.28
2023-04-17T18:47:17.065Z,76.03
2023-04-17T18:49:52.748Z,76.71
2023-04-17T18:52:25.117Z,76.17
2023-04-17T18:54:57.194Z,76.49
2023-04-17T18:57:29.654Z,76.63
2023-04-17T19:00:01.988Z,76.84
2023-04-17T19:02:35.618Z,77.15
2023-04-17T19:05:09.860Z,77.22
2023-04-17T19:07:42.058Z,77.42
2023-04-17T19:10:15.015Z,77.76
2023-04-17T19:12:47.574Z,77.79
2023-04-17T19:15:21.108Z,77.79
2023-04-17T19:17:53.382Z,77.79
2023-04-17T19:20:25.402Z,77.64
2023-04-17T19:22:59.505Z,77.74
2023-04-17T19:25:31.535Z,77.68
2023-04-17T19:28:03.665Z,77.63
2023-04-17T19:30:36.290Z,77.56
2023-04-17T19:33:08.560Z,77.30
2023-04-17T19:35:40.977Z,77.21
2023-04-17T19:38:14.923Z,77.52
2023-04-17T19:41:09.816Z,77.40
2023-04-17T19:43:42.608Z,77.20
2023-04-17T19:46:15.443Z,77.33
2023-04-17T19:48:49.629Z,77.44
2023-04-17T19:51:21.762Z,77.23
2023-04-17T19:53:54.522Z,77.49
2023-04-17T19:56:26.821Z,77.29
2023-04-17T19:59:02.362Z,77.93
2023-04-17T20:01:35.583Z,78.30
2023-04-17T20:04:07.872Z,78.44
2023-04-17T20:06:41.098Z,78.44
2023-04-17T20:09:14.842Z,78.42
2023-04-17T20:11:47.352Z,78.16
2023-04-17T20:14:19.797Z,78.23
2023-04-17T20:16:51.829Z,78.90
2023-04-17T20:19:23.952Z,78.97
2023-04-17T20:21:55.967Z,79.18
2023-04-17T20:24:28.054Z,79.29
2023-04-17T20:27:02.029Z,79.22
2023-04-17T20:29:34.127Z,79.09
2023-04-17T20:32:06.210Z,79.39
2023-04-17T20:34:38.180Z,79.51
2023-04-17T20:37:10.248Z,79.42
2023-04-17T20:39:42.198Z,79.24
2023-04-17T20:42:14.247Z,79.43
2023-04-17T20:44:46.195Z,79.34
2023-04-17T20:47:18.180Z,79.47
2023-04-17T20:49:50.146Z,79.91
2023-04-17T20:52:22.148Z,80.22
2023-04-17T20:54:54.191Z,79.86
2023-04-17T20:57:26.257Z,79.82
2023-04-17T20:59:58.226Z,79.60
2023-04-17T21:02:33.063Z,79.66
2023-04-17T21:05:05.570Z,79.40
2023-04-17T21:07:37.974Z,79.19
2023-04-17T21:10:11.271Z,79.51
2023-04-17T21:12:43.459Z,80.15
2023-04-17T21:15:15.679Z,80.53
2023-04-17T21:17:48.035Z,80.53
2023-04-17T21:20:20.350Z,80.36
2023-04-17T21:22:52.747Z,80.59
2023-04-17T21:25:24.756Z,79.97
2023-04-17T21:27:56.779Z,79.97
2023-04-17T21:30:28.793Z,79.93
2023-04-17T21:33:00.751Z,80.36
2023-04-17T21:35:32.838Z,80.60
2023-04-17T21:38:05.179Z,80.78
2023-04-17T21:40:37.343Z,81.03
2023-04-17T21:43:09.465Z,80.90
2023-04-17T21:45:41.482Z,80.97
2023-04-17T21:48:15.317Z,80.67
2023-04-17T21:50:47.402Z,80.78
2023-04-17T21:53:19.464Z,80.71
2023-04-17T21:55:51.518Z,80.42
2023-04-17T21:58:23.539Z,80.85
2023-04-17T22:00:55.774Z,81.01
2023-04-17T22:03:28.043Z,81.25
2023-04-17T22:06:00.665Z,81.00
2023-04-17T22:08:32.677Z,81.36
2023-04-17T22:11:05.455Z,81.23
2023-04-17T22:13:37.477Z,81.13
2023-04-17T22:16:09.682Z,81.08
2023-04-17T22:18:41.778Z,80.97
2023-04-17T22:21:15.021Z,81.37
2023-04-17T22:23:47.621Z,81.56
2023-04-17T22:26:20.032Z,81.67
2023-04-17T22:28:52.088Z,81.70
2023-04-17T22:31:24.110Z,81.64
2023-04-17T22:33:56.126Z,81.15
2023-04-17T22:36:28.058Z,81.35
2023-04-17T22:39:00.089Z,81.20
2023-04-17T22:41:32.042Z,81.47
2023-04-17T22:44:04.394Z,81.73
2023-04-17T22:46:36.781Z,81.96
2023-04-17T22:49:08.832Z,82.30
2023-04-17T22:51:41.360Z,82.04
2023-04-17T22:54:22.050Z,81.94
2023-04-17T22:56:55.044Z,81.37
2023-04-17T22:59:27.105Z,81.28
2023-04-17T23:01:59.221Z,81.26
2023-04-17T23:04:31.411Z,81.13
2023-04-17T23:07:03.681Z,81.48
2023-04-17T23:09:35.816Z,81.60
2023-04-17T23:12:08.363Z,81.75
2023-04-17T23:14:40.450Z,81.98
2023-04-17T23:17:12.492Z,82.13
2023-04-17T23:19:44.529Z,81.98
2023-04-17T23:22:16.634Z,82.30
2023-04-17T23:24:48.672Z,82.10
2023-04-17T23:27:20.971Z,82.11
2023-04-17T23:29:52.983Z,82.31
2023-04-17T23:32:25.371Z,82.25
2023-04-17T23:34:57.367Z,82.10
2023-04-17T23:37:29.396Z,81.91
2023-04-17T23:40:01.414Z,82.27
2023-04-17T23:42:33.345Z,81.72
2023-04-17T23:45:05.815Z,82.26
2023-04-17T23:47:37.853Z,82.27
2023-04-17T23:50:11.522Z,82.71
2023-04-17T23:52:43.575Z,82.62
2023-04-17T23:55:15.529Z,82.40
2023-04-17T23:57:47.523Z,82.33
